createdAt,value
2019-02-24T19:14:33.532Z,12.03
2019-02-24T19:17:00.746Z,12.90
2019-02-24T19:19:27.946Z,15.30
2019-02-24T19:21:55.133Z,14.60
2019-02-24T19:24:22.335Z,14.03
2019-02-24T19:26:49.550Z,14.05
2019-02-24T19:29:16.771Z,13.78
2019-02-24T19:31:43.976Z,13.85
2019-02-24T19:34:12.679Z,14.50
2019-02-24T19:36:40.030Z,14.28
2019-02-24T19:39:07.250Z,14.60
2019-02-24T19:41:34.454Z,14.25
2019-02-24T19:44:01.661Z,15.18
2019-02-24T19:46:28.941Z,14.90
2019-02-24T19:48:56.226Z,14.28
2019-02-24T19:51:25.423Z,15.38
2019-02-24T19:53:52.818Z,14.13
2019-02-24T19:56:20.010Z,14.87
2019-02-24T19:58:49.079Z,14.70
2019-02-24T20:01:16.344Z,14.75
2019-02-24T20:03:43.551Z,14.15
2019-02-24T20:06:10.763Z,14.20
2019-02-24T20:08:38.000Z,14.25
2019-02-24T20:11:05.184Z,14.68
2019-02-24T20:13:32.385Z,14.93
2019-02-24T20:15:59.618Z,14.40
2019-02-24T20:18:26.877Z,14.98
2019-02-24T20:20:54.105Z,15.60
2019-02-24T20:23:21.289Z,14.30
2019-02-24T20:25:48.498Z,14.05
2019-02-24T20:28:15.790Z,14.78
2019-02-24T20:30:42.986Z,14.43
2019-02-24T20:33:10.362Z,14.47
2019-02-24T20:35:37.554Z,16.23
2019-02-24T20:38:04.746Z,15.28
2019-02-24T20:40:31.927Z,16.25
2019-02-24T20:42:59.130Z,18.30
2019-02-24T20:45:26.314Z,18.98
2019-02-24T20:47:53.534Z,19.35
2019-02-24T20:50:21.694Z,18.77
2019-02-24T20:52:48.922Z,19.87
2019-02-24T20:55:16.094Z,20.10
2019-02-24T20:57:43.302Z,20.32
2019-02-24T21:00:17.693Z,20.50
2019-02-24T21:02:45.824Z,19.45
2019-02-24T21:05:13.039Z,18.00
2019-02-24T21:07:40.474Z,18.40
2019-02-24T21:10:09.497Z,17.90
2019-02-24T21:12:36.834Z,17.95
2019-02-24T21:15:05.714Z,17.50
2019-02-24T21:17:32.923Z,17.67
2019-02-24T21:20:00.308Z,17.75
2019-02-24T21:22:27.646Z,17.50
2019-02-24T21:24:54.824Z,17.10
2019-02-24T21:27:22.029Z,17.80
2019-02-24T21:29:49.210Z,17.50
2019-02-24T21:32:16.504Z,17.87
2019-02-24T21:34:43.688Z,17.80
2019-02-24T21:37:10.886Z,17.17
2019-02-24T21:39:38.094Z,17.30
2019-02-24T21:42:05.342Z,16.30
2019-02-24T21:44:32.564Z,16.90
2019-02-24T21:46:59.823Z,16.93
2019-02-24T21:49:27.162Z,16.57
2019-02-24T21:51:54.416Z,16.90
2019-02-24T21:54:21.615Z,16.00
2019-02-24T21:56:48.916Z,16.52
2019-02-24T21:59:24.561Z,16.52
2019-02-24T22:02:00.104Z,16.93
2019-02-24T22:04:37.059Z,16.10
2019-02-24T22:07:14.333Z,15.93
2019-02-24T22:09:49.563Z,15.58
2019-02-24T22:12:30.246Z,17.05
2019-02-24T22:15:03.267Z,16.00
2019-02-24T22:17:38.894Z,15.68
2019-02-24T22:20:08.591Z,16.87
2019-02-24T22:22:35.784Z,17.90
2019-02-24T22:25:03.045Z,17.85
2019-02-24T22:27:30.247Z,16.82
2019-02-24T22:29:57.435Z,17.35
2019-02-24T22:32:24.621Z,16.80
2019-02-24T22:34:51.827Z,17.62
2019-02-24T22:37:19.092Z,17.55
2019-02-24T22:39:47.045Z,17.48
2019-02-24T22:42:14.227Z,16.48
2019-02-24T22:44:41.425Z,17.05
2019-02-24T22:47:08.620Z,17.52
2019-02-24T22:49:35.875Z,18.23
2019-02-24T22:52:03.054Z,17.00
2019-02-24T22:54:30.264Z,17.70
2019-02-24T22:56:57.446Z,16.50
2019-02-24T22:59:24.640Z,17.85
2019-02-24T23:01:51.950Z,17.77
2019-02-24T23:04:19.145Z,17.35
2019-02-24T23:06:46.621Z,17.48
2019-02-24T23:09:13.911Z,18.25
2019-02-24T23:11:41.109Z,17.32
2019-02-24T23:14:08.306Z,18.30
2019-02-24T23:16:35.697Z,17.60
2019-02-24T23:19:02.966Z,17.60
2019-02-24T23:21:30.164Z,17.37
2019-02-24T23:23:57.332Z,17.23
2019-02-24T23:26:24.710Z,17.87
2019-02-24T23:28:52.117Z,18.23
2019-02-24T23:31:19.367Z,17.77
2019-02-24T23:33:46.554Z,17.87
2019-02-24T23:36:13.749Z,18.40
2019-02-24T23:38:41.007Z,17.52
2019-02-24T23:41:08.269Z,18.12
2019-02-24T23:43:35.910Z,17.12
2019-02-24T23:46:03.225Z,17.75
2019-02-24T23:48:30.458Z,17.30
2019-02-24T23:50:57.659Z,17.10
2019-02-24T23:53:24.882Z,17.60
2019-02-24T23:55:52.060Z,17.23
2019-02-24T23:58:19.266Z,17.37
